sensor_id;sensor_type;location;lat;lon;timestamp;temperature;humidity
8792;DHT22;4432;50.890;4.744;2023-02-01T00:00:02;6.70;99.90
8792;DHT22;4432;50.890;4.744;2023-02-01T00:02:29;6.70;99.90
8792;DHT22;4432;50.890;4.744;2023-02-01T00:04:55;6.70;99.90
8792;DHT22;4432;50.890;4.744;2023-02-01T00:07:20;6.70;99.90
8792;DHT22;4432;50.890;4.744;2023-02-01T00:09:46;6.80;99.90
8792;DHT22;4432;50.890;4.744;2023-02-01T00:12:12;6.80;99.90
8792;DHT22;4432;50.890;4.744;2023-02-01T00:14:38;6.80;99.90
8792;DHT22;4432;50.890;4.744;2023-02-01T00:17:05;6.90;99.90
8792;DHT22;4432;50.890;4.744;2023-02-01T00:19:32;6.90;99.90
8792;DHT22;4432;50.890;4.744;2023-02-01T00:21:58;6.90;99.90
8792;DHT22;4432;50.890;4.744;2023-02-01T00:24:23;6.90;99.90
8792;DHT22;4432;50.890;4.744;2023-02-01T00:26:49;7.00;99.90
8792;DHT22;4432;50.890;4.744;2023-02-01T00:29:18;7.00;99.90
8792;DHT22;4432;50.890;4.744;2023-02-01T00:31:45;7.00;99.90
8792;DHT22;4432;50.890;4.744;2023-02-01T00:34:16;7.00;99.90
8792;DHT22;4432;50.890;4.744;2023-02-01T00:36:42;7.10;99.90
8792;DHT22;4432;50.890;4.744;2023-02-01T00:39:09;7.00;99.90
8792;DHT22;4432;50.890;4.744;2023-02-01T00:41:35;7.10;99.90
8792;DHT22;4432;50.890;4.744;2023-02-01T00:44:01;7.10;99.90
8792;DHT22;4432;50.890;4.744;2023-02-01T00:46:27;7.10;99.90
8792;DHT22;4432;50.890;4.744;2023-02-01T00:48:54;7.10;99.90
8792;DHT22;4432;50.890;4.744;2023-02-01T00:51:23;7.10;99.90
8792;DHT22;4432;50.890;4.744;2023-02-01T00:53:50;7.00;99.90
8792;DHT22;4432;50.890;4.744;2023-02-01T00:56:16;7.10;99.90
8792;DHT22;4432;50.890;4.744;2023-02-01T00:58:42;7.10;99.90
8792;DHT22;4432;50.890;4.744;2023-02-01T01:01:21;7.10;99.90
8792;DHT22;4432;50.890;4.744;2023-02-01T01:03:50;7.10;99.90
8792;DHT22;4432;50.890;4.744;2023-02-01T01:06:20;7.00;99.90
8792;DHT22;4432;50.890;4.744;2023-02-01T01:08:46;7.00;99.90
8792;DHT22;4432;50.890;4.744;2023-02-01T01:11:18;6.90;99.90
8792;DHT22;4432;50.890;4.744;2023-02-01T01:13:46;7.00;99.90
8792;DHT22;4432;50.890;4.744;2023-02-01T01:16:13;7.00;99.90
8792;DHT22;4432;50.890;4.744;2023-02-01T01:18:39;7.00;99.90
8792;DHT22;4432;50.890;4.744;2023-02-01T01:21:06;7.00;99.90
8792;DHT22;4432;50.890;4.744;2023-02-01T01:23:32;7.00;99.90
8792;DHT22;4432;50.890;4.744;2023-02-01T01:25:59;7.10;99.90
8792;DHT22;4432;50.890;4.744;2023-02-01T01:28:25;7.00;99.90
8792;DHT22;4432;50.890;4.744;2023-02-01T01:30:50;7.00;99.90
8792;DHT22;4432;50.890;4.744;2023-02-01T01:33:16;7.00;99.90
8792;DHT22;4432;50.890;4.744;2023-02-01T01:35:42;7.00;99.90
8792;DHT22;4432;50.890;4.744;2023-02-01T01:38:09;7.10;99.90
8792;DHT22;4432;50.890;4.744;2023-02-01T01:40:35;7.10;99.90
8792;DHT22;4432;50.890;4.744;2023-02-01T01:43:01;7.10;99.90
8792;DHT22;4432;50.890;4.744;2023-02-01T01:47:58;7.10;99.90
8792;DHT22;4432;50.890;4.744;2023-02-01T01:50:30;7.20;99.90
8792;DHT22;4432;50.890;4.744;2023-02-01T01:53:00;7.20;99.90
8792;DHT22;4432;50.890;4.744;2023-02-01T01:55:28;7.20;99.90
8792;DHT22;4432;50.890;4.744;2023-02-01T01:58:03;7.10;99.90
8792;DHT22;4432;50.890;4.744;2023-02-01T02:00:31;7.10;99.90
8792;DHT22;4432;50.890;4.744;2023-02-01T02:03:07;7.10;99.90
8792;DHT22;4432;50.890;4.744;2023-02-01T02:05:34;7.10;99.90
8792;DHT22;4432;50.890;4.744;2023-02-01T02:08:00;7.20;99.90
8792;DHT22;4432;50.890;4.744;2023-02-01T02:10:27;7.10;99.90
8792;DHT22;4432;50.890;4.744;2023-02-01T02:13:14;7.20;99.90
8792;DHT22;4432;50.890;4.744;2023-02-01T02:16:16;7.20;99.90
8792;DHT22;4432;50.890;4.744;2023-02-01T02:21:52;7.20;99.90
8792;DHT22;4432;50.890;4.744;2023-02-01T02:36:25;6.70;99.90
8792;DHT22;4432;50.890;4.744;2023-02-01T02:39:18;6.60;99.90
8792;DHT22;4432;50.890;4.744;2023-02-01T02:47:36;6.30;99.90
8792;DHT22;4432;50.890;4.744;2023-02-01T02:53:13;6.30;99.90
8792;DHT22;4432;50.890;4.744;2023-02-01T02:55:59;6.20;99.90
8792;DHT22;4432;50.890;4.744;2023-02-01T02:58:46;6.10;99.90
8792;DHT22;4432;50.890;4.744;2023-02-01T03:01:31;6.10;99.90
8792;DHT22;4432;50.890;4.744;2023-02-01T03:04:16;6.20;99.90
8792;DHT22;4432;50.890;4.744;2023-02-01T03:06:44;6.20;99.90
8792;DHT22;4432;50.890;4.744;2023-02-01T03:09:38;6.30;99.90
8792;DHT22;4432;50.890;4.744;2023-02-01T03:12:09;6.30;99.90
8792;DHT22;4432;50.890;4.744;2023-02-01T03:14:59;6.30;99.90
8792;DHT22;4432;50.890;4.744;2023-02-01T03:17:34;6.20;99.90
8792;DHT22;4432;50.890;4.744;2023-02-01T03:20:02;6.20;99.90
8792;DHT22;4432;50.890;4.744;2023-02-01T03:22:29;6.20;99.90
8792;DHT22;4432;50.890;4.744;2023-02-01T03:25:13;6.20;99.90
8792;DHT22;4432;50.890;4.744;2023-02-01T03:28:06;6.20;99.90
8792;DHT22;4432;50.890;4.744;2023-02-01T03:30:43;6.10;99.90
8792;DHT22;4432;50.890;4.744;2023-02-01T03:33:13;6.10;99.90
8792;DHT22;4432;50.890;4.744;2023-02-01T03:36:25;6.10;99.90
8792;DHT22;4432;50.890;4.744;2023-02-01T03:39:09;6.10;99.90
8792;DHT22;4432;50.890;4.744;2023-02-01T03:42:06;6.10;99.90
8792;DHT22;4432;50.890;4.744;2023-02-01T03:44:53;6.10;99.90
8792;DHT22;4432;50.890;4.744;2023-02-01T03:47:26;6.10;99.90
8792;DHT22;4432;50.890;4.744;2023-02-01T03:49:56;6.10;99.90
8792;DHT22;4432;50.890;4.744;2023-02-01T03:52:40;6.10;99.90
8792;DHT22;4432;50.890;4.744;2023-02-01T03:55:08;6.10;99.90
8792;DHT22;4432;50.890;4.744;2023-02-01T03:57:38;6.00;99.90
8792;DHT22;4432;50.890;4.744;2023-02-01T04:00:18;6.00;99.90
8792;DHT22;4432;50.890;4.744;2023-02-01T04:02:44;6.00;99.90
8792;DHT22;4432;50.890;4.744;2023-02-01T04:05:10;5.90;99.90
8792;DHT22;4432;50.890;4.744;2023-02-01T04:07:36;5.90;99.90
8792;DHT22;4432;50.890;4.744;2023-02-01T04:10:02;5.90;99.90
8792;DHT22;4432;50.890;4.744;2023-02-01T04:12:29;5.90;99.90
8792;DHT22;4432;50.890;4.744;2023-02-01T04:14:54;5.90;99.90
8792;DHT22;4432;50.890;4.744;2023-02-01T04:17:20;5.80;99.90
8792;DHT22;4432;50.890;4.744;2023-02-01T04:19:46;5.70;99.90
8792;DHT22;4432;50.890;4.744;2023-02-01T04:22:12;5.70;99.90
8792;DHT22;4432;50.890;4.744;2023-02-01T04:24:38;5.70;99.90
8792;DHT22;4432;50.890;4.744;2023-02-01T04:27:04;5.70;99.90
8792;DHT22;4432;50.890;4.744;2023-02-01T04:29:30;5.70;99.90
8792;DHT22;4432;50.890;4.744;2023-02-01T04:31:55;5.70;99.90
8792;DHT22;4432;50.890;4.744;2023-02-01T04:34:21;5.60;99.90
8792;DHT22;4432;50.890;4.744;2023-02-01T04:36:48;5.60;99.90
8792;DHT22;4432;50.890;4.744;2023-02-01T04:39:14;5.60;99.90
8792;DHT22;4432;50.890;4.744;2023-02-01T04:41:40;5.60;99.90
8792;DHT22;4432;50.890;4.744;2023-02-01T04:44:05;5.60;99.90
8792;DHT22;4432;50.890;4.744;2023-02-01T04:46:31;5.60;99.90
8792;DHT22;4432;50.890;4.744;2023-02-01T04:48:57;5.60;99.90
8792;DHT22;4432;50.890;4.744;2023-02-01T04:51:23;5.60;99.90
8792;DHT22;4432;50.890;4.744;2023-02-01T04:53:48;5.60;99.90
8792;DHT22;4432;50.890;4.744;2023-02-01T04:56:14;5.60;99.90
8792;DHT22;4432;50.890;4.744;2023-02-01T04:58:40;5.60;99.90
8792;DHT22;4432;50.890;4.744;2023-02-01T05:01:06;5.60;99.90
8792;DHT22;4432;50.890;4.744;2023-02-01T05:03:33;5.50;99.90
8792;DHT22;4432;50.890;4.744;2023-02-01T05:06:00;5.50;99.90
8792;DHT22;4432;50.890;4.744;2023-02-01T05:08:26;5.40;99.90
8792;DHT22;4432;50.890;4.744;2023-02-01T05:10:53;5.40;99.90
8792;DHT22;4432;50.890;4.744;2023-02-01T05:13:18;5.40;99.90
8792;DHT22;4432;50.890;4.744;2023-02-01T05:16:03;5.40;99.90
8792;DHT22;4432;50.890;4.744;2023-02-01T05:18:29;5.40;99.90
8792;DHT22;4432;50.890;4.744;2023-02-01T05:20:55;5.40;99.90
8792;DHT22;4432;50.890;4.744;2023-02-01T05:23:21;5.30;99.90
8792;DHT22;4432;50.890;4.744;2023-02-01T05:25:47;5.20;99.90
8792;DHT22;4432;50.890;4.744;2023-02-01T05:28:13;5.30;99.90
8792;DHT22;4432;50.890;4.744;2023-02-01T05:30:39;5.20;99.90
8792;DHT22;4432;50.890;4.744;2023-02-01T05:33:05;5.10;99.90
8792;DHT22;4432;50.890;4.744;2023-02-01T05:35:31;5.10;99.90
8792;DHT22;4432;50.890;4.744;2023-02-01T05:37:57;5.10;99.90
8792;DHT22;4432;50.890;4.744;2023-02-01T05:40:22;5.10;99.90
8792;DHT22;4432;50.890;4.744;2023-02-01T05:42:48;5.00;99.90
8792;DHT22;4432;50.890;4.744;2023-02-01T05:45:14;5.00;99.90
8792;DHT22;4432;50.890;4.744;2023-02-01T05:47:39;5.00;99.90
8792;DHT22;4432;50.890;4.744;2023-02-01T05:50:06;4.90;99.90
8792;DHT22;4432;50.890;4.744;2023-02-01T05:52:32;4.90;99.90
8792;DHT22;4432;50.890;4.744;2023-02-01T05:54:58;4.90;99.90
8792;DHT22;4432;50.890;4.744;2023-02-01T05:57:24;4.90;99.90
8792;DHT22;4432;50.890;4.744;2023-02-01T05:59:50;4.90;99.90
8792;DHT22;4432;50.890;4.744;2023-02-01T06:02:16;4.80;99.90
8792;DHT22;4432;50.890;4.744;2023-02-01T06:04:42;4.90;99.90
8792;DHT22;4432;50.890;4.744;2023-02-01T06:07:08;4.80;99.90
8792;DHT22;4432;50.890;4.744;2023-02-01T06:09:36;4.80;99.90
8792;DHT22;4432;50.890;4.744;2023-02-01T06:12:03;4.80;99.90
8792;DHT22;4432;50.890;4.744;2023-02-01T06:14:29;4.70;99.90
8792;DHT22;4432;50.890;4.744;2023-02-01T06:16:55;4.70;99.90
8792;DHT22;4432;50.890;4.744;2023-02-01T06:19:22;4.70;99.90
8792;DHT22;4432;50.890;4.744;2023-02-01T06:21:48;4.70;99.90
8792;DHT22;4432;50.890;4.744;2023-02-01T06:24:15;4.70;99.90
8792;DHT22;4432;50.890;4.744;2023-02-01T06:26:41;4.80;99.90
8792;DHT22;4432;50.890;4.744;2023-02-01T06:29:09;4.80;99.90
8792;DHT22;4432;50.890;4.744;2023-02-01T06:31:35;4.70;99.90
8792;DHT22;4432;50.890;4.744;2023-02-01T06:34:01;4.60;99.90
8792;DHT22;4432;50.890;4.744;2023-02-01T06:36:28;4.60;99.90
8792;DHT22;4432;50.890;4.744;2023-02-01T06:38:56;4.70;99.90
8792;DHT22;4432;50.890;4.744;2023-02-01T06:41:22;4.80;99.90
8792;DHT22;4432;50.890;4.744;2023-02-01T06:43:48;4.80;99.90
8792;DHT22;4432;50.890;4.744;2023-02-01T06:46:14;4.70;99.90
8792;DHT22;4432;50.890;4.744;2023-02-01T06:48:40;4.80;99.90
8792;DHT22;4432;50.890;4.744;2023-02-01T06:51:19;4.80;99.90
8792;DHT22;4432;50.890;4.744;2023-02-01T06:53:46;4.80;99.90
8792;DHT22;4432;50.890;4.744;2023-02-01T06:56:11;4.80;99.90
8792;DHT22;4432;50.890;4.744;2023-02-01T06:58:37;4.80;99.90
8792;DHT22;4432;50.890;4.744;2023-02-01T07:01:08;4.70;99.90
8792;DHT22;4432;50.890;4.744;2023-02-01T07:03:35;4.70;99.90
8792;DHT22;4432;50.890;4.744;2023-02-01T07:06:01;4.60;99.90
8792;DHT22;4432;50.890;4.744;2023-02-01T07:08:28;4.60;99.90
8792;DHT22;4432;50.890;4.744;2023-02-01T07:10:54;4.60;99.90
8792;DHT22;4432;50.890;4.744;2023-02-01T07:13:19;4.60;99.90
8792;DHT22;4432;50.890;4.744;2023-02-01T07:15:45;4.60;99.90
8792;DHT22;4432;50.890;4.744;2023-02-01T07:18:15;4.50;99.90
8792;DHT22;4432;50.890;4.744;2023-02-01T07:20:41;4.50;99.90
8792;DHT22;4432;50.890;4.744;2023-02-01T07:23:10;4.50;99.90
8792;DHT22;4432;50.890;4.744;2023-02-01T07:25:36;4.50;99.90
8792;DHT22;4432;50.890;4.744;2023-02-01T07:28:02;4.60;99.90
8792;DHT22;4432;50.890;4.744;2023-02-01T07:30:28;4.60;99.90
8792;DHT22;4432;50.890;4.744;2023-02-01T07:32:54;4.60;99.90
8792;DHT22;4432;50.890;4.744;2023-02-01T07:35:19;4.60;99.90
8792;DHT22;4432;50.890;4.744;2023-02-01T07:37:45;4.60;99.90
8792;DHT22;4432;50.890;4.744;2023-02-01T07:40:11;4.60;99.90
8792;DHT22;4432;50.890;4.744;2023-02-01T07:42:37;4.60;99.90
8792;DHT22;4432;50.890;4.744;2023-02-01T07:45:03;4.60;99.90
8792;DHT22;4432;50.890;4.744;2023-02-01T07:47:30;4.70;99.90
8792;DHT22;4432;50.890;4.744;2023-02-01T07:49:55;4.80;99.90
8792;DHT22;4432;50.890;4.744;2023-02-01T07:52:21;4.80;99.90
8792;DHT22;4432;50.890;4.744;2023-02-01T07:54:47;4.90;99.90
8792;DHT22;4432;50.890;4.744;2023-02-01T07:57:12;4.90;99.90
8792;DHT22;4432;50.890;4.744;2023-02-01T07:59:38;4.90;99.90
8792;DHT22;4432;50.890;4.744;2023-02-01T08:02:27;5.00;99.90
8792;DHT22;4432;50.890;4.744;2023-02-01T08:04:53;5.10;99.90
8792;DHT22;4432;50.890;4.744;2023-02-01T08:07:18;5.20;99.90
8792;DHT22;4432;50.890;4.744;2023-02-01T08:09:44;5.30;99.90
8792;DHT22;4432;50.890;4.744;2023-02-01T08:12:10;5.40;99.90
8792;DHT22;4432;50.890;4.744;2023-02-01T08:14:36;5.60;99.90
8792;DHT22;4432;50.890;4.744;2023-02-01T08:17:02;5.70;99.90
8792;DHT22;4432;50.890;4.744;2023-02-01T08:19:27;5.90;99.90
8792;DHT22;4432;50.890;4.744;2023-02-01T08:21:53;5.90;99.90
8792;DHT22;4432;50.890;4.744;2023-02-01T08:24:19;5.90;99.90
8792;DHT22;4432;50.890;4.744;2023-02-01T08:26:45;5.90;99.90
8792;DHT22;4432;50.890;4.744;2023-02-01T08:29:10;5.90;99.90
8792;DHT22;4432;50.890;4.744;2023-02-01T08:31:38;5.90;99.90
8792;DHT22;4432;50.890;4.744;2023-02-01T08:34:08;5.80;99.90
8792;DHT22;4432;50.890;4.744;2023-02-01T08:36:34;5.80;99.90
8792;DHT22;4432;50.890;4.744;2023-02-01T08:39:00;5.80;99.90
8792;DHT22;4432;50.890;4.744;2023-02-01T08:41:29;5.90;99.90
8792;DHT22;4432;50.890;4.744;2023-02-01T08:43:56;6.00;99.90
8792;DHT22;4432;50.890;4.744;2023-02-01T08:46:23;6.00;99.90
8792;DHT22;4432;50.890;4.744;2023-02-01T08:48:49;6.00;99.90
8792;DHT22;4432;50.890;4.744;2023-02-01T08:51:17;6.10;99.90
8792;DHT22;4432;50.890;4.744;2023-02-01T08:53:44;6.10;99.90
8792;DHT22;4432;50.890;4.744;2023-02-01T08:56:11;6.20;99.90
8792;DHT22;4432;50.890;4.744;2023-02-01T08:58:37;6.20;99.90
8792;DHT22;4432;50.890;4.744;2023-02-01T09:01:05;6.40;99.90
8792;DHT22;4432;50.890;4.744;2023-02-01T09:03:31;6.40;99.90
8792;DHT22;4432;50.890;4.744;2023-02-01T09:06:08;6.50;99.90
8792;DHT22;4432;50.890;4.744;2023-02-01T09:08:35;6.50;99.90
8792;DHT22;4432;50.890;4.744;2023-02-01T09:11:05;6.60;99.90
8792;DHT22;4432;50.890;4.744;2023-02-01T09:13:31;6.60;99.90
8792;DHT22;4432;50.890;4.744;2023-02-01T09:15:57;6.70;99.90
8792;DHT22;4432;50.890;4.744;2023-02-01T09:18:25;6.70;99.90
8792;DHT22;4432;50.890;4.744;2023-02-01T09:20:51;6.80;99.90
8792;DHT22;4432;50.890;4.744;2023-02-01T09:23:16;6.90;99.90
8792;DHT22;4432;50.890;4.744;2023-02-01T09:25:42;7.10;99.90
8792;DHT22;4432;50.890;4.744;2023-02-01T09:28:08;7.30;99.90
8792;DHT22;4432;50.890;4.744;2023-02-01T09:30:36;7.60;99.90
8792;DHT22;4432;50.890;4.744;2023-02-01T09:33:03;7.70;99.90
8792;DHT22;4432;50.890;4.744;2023-02-01T09:35:29;7.90;99.90
8792;DHT22;4432;50.890;4.744;2023-02-01T09:37:55;8.00;99.90
8792;DHT22;4432;50.890;4.744;2023-02-01T09:40:21;8.00;99.90
8792;DHT22;4432;50.890;4.744;2023-02-01T09:45:35;8.00;99.90
8792;DHT22;4432;50.890;4.744;2023-02-01T09:48:13;8.00;99.90
8792;DHT22;4432;50.890;4.744;2023-02-01T09:50:45;8.00;99.90
8792;DHT22;4432;50.890;4.744;2023-02-01T09:55:50;8.00;99.90
8792;DHT22;4432;50.890;4.744;2023-02-01T09:58:40;7.90;99.90
8792;DHT22;4432;50.890;4.744;2023-02-01T10:01:24;8.00;99.90
8792;DHT22;4432;50.890;4.744;2023-02-01T10:04:02;8.10;99.90
8792;DHT22;4432;50.890;4.744;2023-02-01T10:23:19;8.70;99.90
8792;DHT22;4432;50.890;4.744;2023-02-01T10:25:59;8.70;99.90
8792;DHT22;4432;50.890;4.744;2023-02-01T10:28:27;8.80;99.90
8792;DHT22;4432;50.890;4.744;2023-02-01T10:30:56;8.90;99.90
8792;DHT22;4432;50.890;4.744;2023-02-01T10:33:26;9.00;99.90
8792;DHT22;4432;50.890;4.744;2023-02-01T10:39:03;8.80;99.90
8792;DHT22;4432;50.890;4.744;2023-02-01T10:41:34;8.90;99.90
8792;DHT22;4432;50.890;4.744;2023-02-01T10:44:03;9.10;99.90
8792;DHT22;4432;50.890;4.744;2023-02-01T10:46:31;9.30;99.90
8792;DHT22;4432;50.890;4.744;2023-02-01T10:48:59;9.30;99.90
8792;DHT22;4432;50.890;4.744;2023-02-01T10:54:34;9.30;99.90
8792;DHT22;4432;50.890;4.744;2023-02-01T10:57:00;9.40;99.90
8792;DHT22;4432;50.890;4.744;2023-02-01T10:59:28;9.40;99.90
8792;DHT22;4432;50.890;4.744;2023-02-01T11:01:59;9.50;99.90
8792;DHT22;4432;50.890;4.744;2023-02-01T11:04:26;9.50;99.90
8792;DHT22;4432;50.890;4.744;2023-02-01T11:07:06;9.60;99.90
8792;DHT22;4432;50.890;4.744;2023-02-01T11:09:38;9.60;99.90
8792;DHT22;4432;50.890;4.744;2023-02-01T11:12:10;9.70;99.90
8792;DHT22;4432;50.890;4.744;2023-02-01T11:14:47;9.80;99.90
8792;DHT22;4432;50.890;4.744;2023-02-01T11:17:31;9.90;99.90
8792;DHT22;4432;50.890;4.744;2023-02-01T11:20:05;10.00;99.90
8792;DHT22;4432;50.890;4.744;2023-02-01T11:22:32;10.00;99.90
8792;DHT22;4432;50.890;4.744;2023-02-01T11:24:59;9.90;99.90
8792;DHT22;4432;50.890;4.744;2023-02-01T11:27:27;9.80;99.90
8792;DHT22;4432;50.890;4.744;2023-02-01T11:29:57;9.50;99.90
8792;DHT22;4432;50.890;4.744;2023-02-01T11:32:24;9.50;99.90
8792;DHT22;4432;50.890;4.744;2023-02-01T11:35:01;9.60;99.90
8792;DHT22;4432;50.890;4.744;2023-02-01T11:37:34;9.70;99.90
8792;DHT22;4432;50.890;4.744;2023-02-01T11:40:23;9.90;99.90
8792;DHT22;4432;50.890;4.744;2023-02-01T11:42:55;10.00;99.90
8792;DHT22;4432;50.890;4.744;2023-02-01T11:45:30;10.00;99.90
8792;DHT22;4432;50.890;4.744;2023-02-01T11:47:57;10.30;99.90
8792;DHT22;4432;50.890;4.744;2023-02-01T11:53:32;10.80;99.90
8792;DHT22;4432;50.890;4.744;2023-02-01T11:56:52;10.70;99.90
8792;DHT22;4432;50.890;4.744;2023-02-01T11:59:23;10.70;99.90
8792;DHT22;4432;50.890;4.744;2023-02-01T12:17:30;10.70;99.90
8792;DHT22;4432;50.890;4.744;2023-02-01T12:28:34;10.90;99.90
8792;DHT22;4432;50.890;4.744;2023-02-01T12:43:05;10.30;99.90
8792;DHT22;4432;50.890;4.744;2023-02-01T12:45:41;10.30;99.90
8792;DHT22;4432;50.890;4.744;2023-02-01T12:48:18;10.40;99.90
8792;DHT22;4432;50.890;4.744;2023-02-01T12:50:52;10.50;99.90
8792;DHT22;4432;50.890;4.744;2023-02-01T12:53:27;10.40;99.90
8792;DHT22;4432;50.890;4.744;2023-02-01T12:55:56;10.30;99.90
8792;DHT22;4432;50.890;4.744;2023-02-01T12:58:27;10.40;99.90
8792;DHT22;4432;50.890;4.744;2023-02-01T13:01:02;10.30;99.90
8792;DHT22;4432;50.890;4.744;2023-02-01T13:06:19;10.20;99.90
8792;DHT22;4432;50.890;4.744;2023-02-01T13:11:45;10.40;99.90
8792;DHT22;4432;50.890;4.744;2023-02-01T13:17:05;10.40;99.90
8792;DHT22;4432;50.890;4.744;2023-02-01T13:19:52;10.40;99.90
8792;DHT22;4432;50.890;4.744;2023-02-01T13:22:29;10.40;99.90
8792;DHT22;4432;50.890;4.744;2023-02-01T13:25:02;10.40;99.90
8792;DHT22;4432;50.890;4.744;2023-02-01T13:27:29;10.50;99.90
8792;DHT22;4432;50.890;4.744;2023-02-01T13:30:03;10.60;99.90
8792;DHT22;4432;50.890;4.744;2023-02-01T13:35:54;10.60;99.90
8792;DHT22;4432;50.890;4.744;2023-02-01T13:41:15;10.50;99.90
8792;DHT22;4432;50.890;4.744;2023-02-01T13:43:49;10.40;99.90
8792;DHT22;4432;50.890;4.744;2023-02-01T13:46:17;10.30;99.90
8792;DHT22;4432;50.890;4.744;2023-02-01T13:48:53;10.40;99.90
8792;DHT22;4432;50.890;4.744;2023-02-01T13:51:45;10.50;99.90
8792;DHT22;4432;50.890;4.744;2023-02-01T13:54:28;10.50;99.90
8792;DHT22;4432;50.890;4.744;2023-02-01T13:56:54;10.60;99.90
8792;DHT22;4432;50.890;4.744;2023-02-01T14:02:36;10.50;99.90
8792;DHT22;4432;50.890;4.744;2023-02-01T14:05:01;10.50;99.90
8792;DHT22;4432;50.890;4.744;2023-02-01T14:07:27;10.40;99.90
8792;DHT22;4432;50.890;4.744;2023-02-01T14:09:54;10.30;99.90
8792;DHT22;4432;50.890;4.744;2023-02-01T14:12:47;10.30;99.90
8792;DHT22;4432;50.890;4.744;2023-02-01T14:15:23;10.20;99.90
8792;DHT22;4432;50.890;4.744;2023-02-01T14:17:49;10.20;99.90
8792;DHT22;4432;50.890;4.744;2023-02-01T14:20:41;10.20;99.90
8792;DHT22;4432;50.890;4.744;2023-02-01T14:23:18;10.20;99.90
8792;DHT22;4432;50.890;4.744;2023-02-01T14:25:45;10.20;99.90
8792;DHT22;4432;50.890;4.744;2023-02-01T14:28:25;10.20;99.90
8792;DHT22;4432;50.890;4.744;2023-02-01T14:30:53;10.10;99.90
8792;DHT22;4432;50.890;4.744;2023-02-01T14:33:22;10.10;99.90
8792;DHT22;4432;50.890;4.744;2023-02-01T14:36:15;10.10;99.90
8792;DHT22;4432;50.890;4.744;2023-02-01T14:38:48;10.00;99.90
8792;DHT22;4432;50.890;4.744;2023-02-01T14:47:02;10.00;99.90
8792;DHT22;4432;50.890;4.744;2023-02-01T14:49:33;9.90;99.90
8792;DHT22;4432;50.890;4.744;2023-02-01T14:52:02;9.90;99.90
8792;DHT22;4432;50.890;4.744;2023-02-01T14:54:31;9.90;99.90
8792;DHT22;4432;50.890;4.744;2023-02-01T14:56:57;9.90;99.90
8792;DHT22;4432;50.890;4.744;2023-02-01T14:59:25;9.90;99.90
8792;DHT22;4432;50.890;4.744;2023-02-01T15:01:58;9.90;99.90
8792;DHT22;4432;50.890;4.744;2023-02-01T15:04:27;10.00;99.90
8792;DHT22;4432;50.890;4.744;2023-02-01T15:07:03;9.90;99.90
8792;DHT22;4432;50.890;4.744;2023-02-01T15:09:38;9.90;99.90
8792;DHT22;4432;50.890;4.744;2023-02-01T15:12:16;9.90;99.90
8792;DHT22;4432;50.890;4.744;2023-02-01T15:15:16;9.90;99.90
8792;DHT22;4432;50.890;4.744;2023-02-01T15:20:27;9.80;99.90
8792;DHT22;4432;50.890;4.744;2023-02-01T15:23:05;9.70;99.90
8792;DHT22;4432;50.890;4.744;2023-02-01T15:25:36;9.70;99.90
8792;DHT22;4432;50.890;4.744;2023-02-01T15:28:04;9.60;99.90
8792;DHT22;4432;50.890;4.744;2023-02-01T15:30:33;9.50;99.90
8792;DHT22;4432;50.890;4.744;2023-02-01T15:33:16;9.50;99.90
8792;DHT22;4432;50.890;4.744;2023-02-01T15:35:49;9.50;99.90
8792;DHT22;4432;50.890;4.744;2023-02-01T15:43:42;9.50;99.90
8792;DHT22;4432;50.890;4.744;2023-02-01T15:46:11;9.50;99.90
8792;DHT22;4432;50.890;4.744;2023-02-01T15:48:47;9.40;99.90
8792;DHT22;4432;50.890;4.744;2023-02-01T15:51:21;9.40;99.90
8792;DHT22;4432;50.890;4.744;2023-02-01T15:53:57;9.40;99.90
8792;DHT22;4432;50.890;4.744;2023-02-01T15:56:29;9.40;99.90
8792;DHT22;4432;50.890;4.744;2023-02-01T15:59:00;9.40;99.90
8792;DHT22;4432;50.890;4.744;2023-02-01T16:01:27;9.30;99.90
8792;DHT22;4432;50.890;4.744;2023-02-01T16:04:25;9.30;99.90
8792;DHT22;4432;50.890;4.744;2023-02-01T16:06:55;9.30;99.90
8792;DHT22;4432;50.890;4.744;2023-02-01T16:09:56;9.40;99.90
8792;DHT22;4432;50.890;4.744;2023-02-01T16:12:45;9.30;99.90
8792;DHT22;4432;50.890;4.744;2023-02-01T16:15:12;9.30;99.90
8792;DHT22;4432;50.890;4.744;2023-02-01T16:17:38;9.20;99.90
8792;DHT22;4432;50.890;4.744;2023-02-01T16:20:04;9.20;99.90
8792;DHT22;4432;50.890;4.744;2023-02-01T16:22:30;9.20;99.90
8792;DHT22;4432;50.890;4.744;2023-02-01T16:24:56;9.20;99.90
8792;DHT22;4432;50.890;4.744;2023-02-01T16:27:22;9.20;99.90
8792;DHT22;4432;50.890;4.744;2023-02-01T16:29:49;9.20;99.90
8792;DHT22;4432;50.890;4.744;2023-02-01T16:32:20;9.10;99.90
8792;DHT22;4432;50.890;4.744;2023-02-01T16:34:47;9.10;99.90
8792;DHT22;4432;50.890;4.744;2023-02-01T16:37:16;9.10;99.90
8792;DHT22;4432;50.890;4.744;2023-02-01T16:39:42;9.10;99.90
8792;DHT22;4432;50.890;4.744;2023-02-01T16:42:15;9.00;99.90
8792;DHT22;4432;50.890;4.744;2023-02-01T16:44:42;9.00;99.90
8792;DHT22;4432;50.890;4.744;2023-02-01T16:47:14;8.90;99.90
8792;DHT22;4432;50.890;4.744;2023-02-01T16:49:42;8.90;99.90
8792;DHT22;4432;50.890;4.744;2023-02-01T16:52:23;9.00;99.90
8792;DHT22;4432;50.890;4.744;2023-02-01T16:54:49;8.90;99.90
8792;DHT22;4432;50.890;4.744;2023-02-01T16:57:17;9.00;99.90
8792;DHT22;4432;50.890;4.744;2023-02-01T16:59:43;9.00;99.90
8792;DHT22;4432;50.890;4.744;2023-02-01T17:02:15;9.00;99.90
8792;DHT22;4432;50.890;4.744;2023-02-01T17:04:42;9.00;99.90
8792;DHT22;4432;50.890;4.744;2023-02-01T17:07:12;9.00;99.90
8792;DHT22;4432;50.890;4.744;2023-02-01T17:09:39;9.00;99.90
8792;DHT22;4432;50.890;4.744;2023-02-01T17:12:05;9.00;99.90
8792;DHT22;4432;50.890;4.744;2023-02-01T17:14:35;9.00;99.90
8792;DHT22;4432;50.890;4.744;2023-02-01T17:17:01;9.00;99.90
8792;DHT22;4432;50.890;4.744;2023-02-01T17:19:27;9.00;99.90
8792;DHT22;4432;50.890;4.744;2023-02-01T17:21:55;9.00;99.90
8792;DHT22;4432;50.890;4.744;2023-02-01T17:24:26;9.00;99.90
8792;DHT22;4432;50.890;4.744;2023-02-01T17:26:52;9.00;99.90
8792;DHT22;4432;50.890;4.744;2023-02-01T17:29:18;9.00;99.90
8792;DHT22;4432;50.890;4.744;2023-02-01T17:31:47;9.00;99.90
8792;DHT22;4432;50.890;4.744;2023-02-01T17:34:14;9.00;99.90
8792;DHT22;4432;50.890;4.744;2023-02-01T17:36:41;9.00;99.90
8792;DHT22;4432;50.890;4.744;2023-02-01T17:39:07;9.00;99.90
8792;DHT22;4432;50.890;4.744;2023-02-01T17:41:34;9.00;99.90
8792;DHT22;4432;50.890;4.744;2023-02-01T17:44:00;8.90;99.90
8792;DHT22;4432;50.890;4.744;2023-02-01T17:46:26;8.90;99.90
8792;DHT22;4432;50.890;4.744;2023-02-01T17:48:53;8.90;99.90
8792;DHT22;4432;50.890;4.744;2023-02-01T17:51:23;8.80;99.90
8792;DHT22;4432;50.890;4.744;2023-02-01T17:53:49;8.80;99.90
8792;DHT22;4432;50.890;4.744;2023-02-01T17:56:20;8.80;99.90
8792;DHT22;4432;50.890;4.744;2023-02-01T17:58:46;8.80;99.90
8792;DHT22;4432;50.890;4.744;2023-02-01T18:01:20;8.90;99.90
8792;DHT22;4432;50.890;4.744;2023-02-01T18:03:47;8.90;99.90
8792;DHT22;4432;50.890;4.744;2023-02-01T18:06:15;8.90;99.90
8792;DHT22;4432;50.890;4.744;2023-02-01T18:08:41;8.90;99.90
8792;DHT22;4432;50.890;4.744;2023-02-01T18:11:12;8.90;99.90
8792;DHT22;4432;50.890;4.744;2023-02-01T18:13:38;8.90;99.90
8792;DHT22;4432;50.890;4.744;2023-02-01T18:16:05;8.90;99.90
8792;DHT22;4432;50.890;4.744;2023-02-01T18:18:31;8.80;99.90
8792;DHT22;4432;50.890;4.744;2023-02-01T18:20:58;8.90;99.90
8792;DHT22;4432;50.890;4.744;2023-02-01T18:23:24;8.90;99.90
8792;DHT22;4432;50.890;4.744;2023-02-01T18:25:51;8.90;99.90
8792;DHT22;4432;50.890;4.744;2023-02-01T18:28:18;8.80;99.90
8792;DHT22;4432;50.890;4.744;2023-02-01T18:30:46;8.80;99.90
8792;DHT22;4432;50.890;4.744;2023-02-01T18:33:15;8.80;99.90
8792;DHT22;4432;50.890;4.744;2023-02-01T18:35:41;8.80;99.90
8792;DHT22;4432;50.890;4.744;2023-02-01T18:38:08;8.70;99.90